Time;durP1;ratioP1;P1;durP2;ratioP2;P2;SDS_P1;SDS_P2;PMS_P1;PMS_P2;Temp;Humidity;BMP_temperature;BMP_pressure;BME280_temperature;BME280_humidity;BME280_pressure;Samples;Min_cycle;Max_cycle;Signal;HPM_P1;HPM_P2
2022/10/08 00:00:50;;;;;;;3.93;1.80;;;9.10;55.70;;;;;;6206974;23;20494;-82
2022/10/08 00:03:17;;;;;;;3.60;1.93;;;8.70;58.10;;;;;;6206456;23;20225;-82
2022/10/08 00:05:42;;;;;;;4.03;2.30;;;9.00;52.10;;;;;;6208656;23;20162;-81
2022/10/08 00:08:09;;;;;;;6.13;2.60;;;9.30;69.50;;;;;;6207237;23;20565;-81
2022/10/08 00:10:36;;;;;;;6.60;2.80;;;9.00;83.10;;;;;;6208781;23;20875;-82
2022/10/08 00:13:03;;;;;;;5.00;2.17;;;9.30;99.90;;;;;;6206738;23;20228;-83
2022/10/08 00:15:29;;;;;;;4.50;2.40;;;8.80;99.90;;;;;;6206761;23;20166;-81
2022/10/08 00:17:55;;;;;;;5.07;2.33;;;8.90;99.90;;;;;;6208640;23;20165;-82
2022/10/08 00:20:21;;;;;;;4.93;2.37;;;8.90;99.90;;;;;;6208522;23;20159;-82
2022/10/08 00:22:47;;;;;;;4.47;2.30;;;8.60;99.90;;;;;;6206791;23;20185;-81
2022/10/08 00:25:13;;;;;;;6.27;2.43;;;8.80;99.90;;;;;;6206870;23;20590;-82
2022/10/08 00:27:38;;;;;;;4.00;2.80;;;8.80;99.90;;;;;;6207035;23;20245;-83
2022/10/08 00:30:05;;;;;;;6.10;2.53;;;8.90;99.90;;;;;;6207174;23;20214;-82
2022/10/08 00:32:31;;;;;;;5.83;2.63;;;8.80;99.90;;;;;;6209878;23;20220;-83
2022/10/08 00:34:57;;;;;;;3.63;2.27;;;8.80;99.90;;;;;;6210027;23;20159;-81
2022/10/08 00:37:24;;;;;;;8.50;3.10;;;8.80;99.90;;;;;;6207429;23;20161;-82
2022/10/08 00:39:50;;;;;;;6.60;2.80;;;8.70;99.90;;;;;;6209087;23;20154;-82
2022/10/08 00:42:16;;;;;;;6.93;3.00;;;8.70;99.90;;;;;;6206795;23;20214;-81
2022/10/08 00:45:00;;;;;;;4.67;3.17;;;8.70;99.90;;;;;;6206861;23;20213;-83
2022/10/08 00:47:26;;;;;;;5.87;3.13;;;8.60;99.90;;;;;;6207137;23;20185;-81
2022/10/08 00:49:56;;;;;;;6.47;3.10;;;8.70;99.90;;;;;;6210497;23;20183;-82
2022/10/08 00:52:27;;;;;;;5.13;2.93;;;8.70;99.90;;;;;;6208550;23;20178;-82
2022/10/08 00:54:53;;;;;;;7.53;3.27;;;8.70;99.90;;;;;;6208675;23;20531;-82
2022/10/08 00:57:20;;;;;;;6.67;2.93;;;8.60;99.90;;;;;;6208674;23;20531;-81
2022/10/08 00:59:46;;;;;;;6.80;3.27;;;8.60;99.90;;;;;;6210901;23;20165;-81
2022/10/08 01:02:12;;;;;;;6.03;3.40;;;8.50;99.90;;;;;;6208315;23;20521;-81
2022/10/08 01:04:40;;;;;;;6.47;3.80;;;8.40;99.90;;;;;;6208733;23;20166;-80
2022/10/08 01:07:16;;;;;;;6.00;3.50;;;8.60;1.00;;;;;;6210708;23;20158;-81
2022/10/08 01:09:51;;;;;;;7.93;3.77;;;8.70;1.00;;;;;;6210744;23;20256;-81
2022/10/08 01:12:53;;;;;;;6.47;2.77;;;8.90;1.00;;;;;;6208674;23;20182;-82
2022/10/08 01:15:22;;;;;;;4.97;3.13;;;8.60;1.00;;;;;;6210261;23;20672;-81
2022/10/08 01:18:06;;;;;;;6.97;3.10;;;8.50;99.90;;;;;;6183847;23;20158;-82
2022/10/08 01:20:31;;;;;;;4.63;3.10;;;8.60;1.00;;;;;;6209678;23;20595;-81
2022/10/08 01:23:16;;;;;;;3.70;2.67;;;8.50;1.00;;;;;;6183205;23;20395;-80
2022/10/08 01:25:53;;;;;;;4.87;3.03;;;8.50;1.00;;;;;;6210096;23;20459;-82
2022/10/08 01:28:33;;;;;;;6.17;3.50;;;8.50;1.00;;;;;;6183383;23;20173;-81
2022/10/08 01:31:01;;;;;;;4.50;3.37;;;8.50;1.00;;;;;;6182831;23;20668;-83
2022/10/08 01:33:46;;;;;;;5.00;2.87;;;8.50;1.00;;;;;;6209760;23;20627;-81
2022/10/08 01:36:16;;;;;;;5.13;3.27;;;8.50;1.00;;;;;;6181622;23;20154;-81
2022/10/08 01:38:47;;;;;;;8.53;3.30;;;8.40;1.00;;;;;;6207878;23;20247;-80
2022/10/08 01:41:16;;;;;;;3.80;3.03;;;8.40;1.00;;;;;;6181329;23;20151;-80
2022/10/08 01:43:48;;;;;;;5.30;3.20;;;8.40;1.00;;;;;;6208119;23;20268;-80
2022/10/08 01:46:19;;;;;;;7.13;3.47;;;8.40;1.00;;;;;;6181654;23;20150;-80
2022/10/08 01:48:48;;;;;;;5.27;2.80;;;8.30;1.00;;;;;;6181731;23;20153;-81
2022/10/08 01:51:25;;;;;;;4.67;3.00;;;8.40;1.00;;;;;;6208204;23;20201;-81
2022/10/08 01:53:52;;;;;;;4.83;3.00;;;8.40;1.00;;;;;;6207945;23;20182;-81
2022/10/08 01:56:22;;;;;;;6.03;2.83;;;8.40;1.00;;;;;;6181380;23;20544;-81
2022/10/08 01:59:00;;;;;;;5.30;3.13;;;8.40;1.00;;;;;;6181336;23;20595;-80
2022/10/08 02:01:42;;;;;;;9.13;3.43;;;8.40;1.00;;;;;;6208256;23;20144;-80
2022/10/08 02:06:56;;;;;;;8.03;3.53;;;8.70;1.00;;;;;;6208025;23;20157;-80
2022/10/08 02:09:26;;;;;;;8.90;3.60;;;8.30;1.00;;;;;;6208516;23;20209;-80
2022/10/08 02:11:52;;;;;;;6.63;3.57;;;8.30;1.00;;;;;;6181319;23;20189;-80
2022/10/08 02:14:19;;;;;;;4.50;2.90;;;8.30;1.00;;;;;;6205549;23;20177;-81
2022/10/08 02:16:57;;;;;;;5.43;2.97;;;8.20;1.00;;;;;;6207179;23;20245;-81
2022/10/08 02:19:36;;;;;;;7.10;4.00;;;8.40;1.00;;;;;;6206574;23;20158;-81
2022/10/08 02:22:04;;;;;;;6.03;3.80;;;8.20;1.00;;;;;;6206638;23;20594;-80
2022/10/08 02:24:42;;;;;;;6.80;3.40;;;8.20;1.00;;;;;;6206583;23;20166;-80
2022/10/08 02:27:08;;;;;;;7.10;3.17;;;8.30;99.90;;;;;;6206549;23;20158;-82
2022/10/08 02:30:06;;;;;;;4.03;3.30;;;8.60;69.70;;;;;;6208528;23;20205;-80
2022/10/08 02:32:50;;;;;;;7.17;3.10;;;8.30;1.00;;;;;;6207952;23;20181;-81
2022/10/08 02:35:25;;;;;;;6.60;3.60;;;8.30;1.00;;;;;;6206109;23;20503;-83
2022/10/08 02:37:59;;;;;;;8.83;3.20;;;8.40;64.20;;;;;;6208496;23;20140;-82
2022/10/08 02:40:26;;;;;;;5.37;3.67;;;8.40;14.20;;;;;;6206268;23;20158;-82
2022/10/08 02:42:57;;;;;;;6.30;2.83;;;8.50;1.00;;;;;;6208198;23;20173;-82
2022/10/08 02:45:28;;;;;;;6.90;3.67;;;8.30;1.00;;;;;;6208245;23;20138;-81
2022/10/08 02:48:03;;;;;;;4.87;3.33;;;8.40;1.00;;;;;;6208040;23;20170;-80
2022/10/08 02:50:31;;;;;;;6.20;2.93;;;8.30;1.00;;;;;;6206278;23;20231;-81
2022/10/08 02:52:57;;;;;;;7.57;3.47;;;8.50;1.00;;;;;;6206095;23;20320;-82
2022/10/08 02:55:35;;;;;;;6.23;3.20;;;8.40;1.00;;;;;;6208154;23;20300;-81
2022/10/08 02:58:05;;;;;;;13.40;3.80;;;8.20;1.00;;;;;;6207922;23;20169;-82
2022/10/08 03:00:37;;;;;;;7.83;3.20;;;8.30;99.90;;;;;;6206310;23;20158;-81
2022/10/08 03:03:12;;;;;;;7.10;2.80;;;8.50;99.90;;;;;;6205110;23;20190;-81
2022/10/08 03:05:40;;;;;;;6.07;2.73;;;8.70;20.00;;;;;;6206594;23;20183;-81
2022/10/08 03:08:08;;;;;;;7.23;3.10;;;8.70;1.00;;;;;;6207808;23;20185;-81
2022/10/08 03:10:37;;;;;;;5.20;2.73;;;8.80;1.00;;;;;;6206267;23;20189;-82
2022/10/08 03:13:04;;;;;;;5.87;2.60;;;8.80;1.00;;;;;;6207960;23;20268;-82
2022/10/08 03:15:32;;;;;;;7.40;3.10;;;8.90;1.00;;;;;;6207114;23;20232;-83
2022/10/08 03:17:59;;;;;;;6.17;2.37;;;8.90;1.00;;;;;;6179863;23;20243;-82
2022/10/08 03:20:25;;;;;;;5.13;2.43;;;8.60;1.00;;;;;;6180601;23;20162;-82
2022/10/08 03:22:54;;;;;;;7.27;2.90;;;8.70;1.00;;;;;;6181576;23;20240;-82
2022/10/08 03:25:20;;;;;;;6.03;2.73;;;8.80;1.00;;;;;;6181359;23;20166;-82
2022/10/08 03:27:48;;;;;;;10.13;3.30;;;8.80;99.90;;;;;;6180057;23;20621;-82
2022/10/08 03:30:14;;;;;;;4.87;2.60;;;8.70;99.90;;;;;;6207168;23;20607;-84
2022/10/08 03:32:39;;;;;;;6.97;2.80;;;8.60;99.90;;;;;;6184286;23;20197;-83
2022/10/08 03:35:05;;;;;;;7.60;2.90;;;8.60;1.00;;;;;;6185900;23;20162;-80
2022/10/08 03:37:30;;;;;;;7.60;2.67;;;8.50;1.00;;;;;;6183086;23;20155;-81
2022/10/08 03:39:56;;;;;;;5.93;2.50;;;8.70;1.00;;;;;;6209670;23;20885;-80
2022/10/08 03:42:21;;;;;;;5.97;2.73;;;8.70;1.00;;;;;;6182521;23;20186;-82
2022/10/08 03:44:47;;;;;;;6.87;2.40;;;8.40;1.00;;;;;;6182841;23;20480;-81
2022/10/08 03:47:13;;;;;;;6.90;3.03;;;8.50;1.00;;;;;;6183618;23;20170;-82
2022/10/08 03:49:39;;;;;;;9.93;2.57;;;8.60;1.00;;;;;;6182855;23;20193;-82
2022/10/08 03:52:05;;;;;;;5.20;2.50;;;8.50;1.00;;;;;;6182957;23;20193;-81
2022/10/08 03:54:34;;;;;;;5.93;3.00;;;8.50;1.00;;;;;;6181894;23;20154;-81
2022/10/08 03:57:00;;;;;;;7.30;2.63;;;8.50;1.00;;;;;;6182972;23;20165;-81
2022/10/08 03:59:25;;;;;;;6.07;2.43;;;8.60;1.00;;;;;;6183170;23;20158;-81
2022/10/08 04:01:51;;;;;;;6.33;2.67;;;8.40;1.00;;;;;;6182778;23;20220;-80
2022/10/08 04:04:16;;;;;;;16.30;2.67;;;8.70;1.00;;;;;;6209704;23;20472;-80
2022/10/08 04:06:42;;;;;;;9.50;2.20;;;9.20;1.00;;;;;;6183042;23;20196;-82
2022/10/08 04:09:09;;;;;;;7.50;2.40;;;8.70;1.00;;;;;;6183048;23;20189;-81
2022/10/08 04:11:34;;;;;;;5.93;2.73;;;8.70;1.00;;;;;;6209653;23;20650;-81
2022/10/08 04:14:00;;;;;;;15.27;6.27;;;8.70;1.00;;;;;;6202879;23;20201;-82
2022/10/08 04:16:25;;;;;;;30.97;13.33;;;8.80;1.00;;;;;;6208116;23;20906;-80
2022/10/08 04:18:51;;;;;;;34.23;15.23;;;9.00;99.90;;;;;;6208208;23;20159;-82
2022/10/08 04:21:18;;;;;;;24.77;10.93;;;8.80;99.90;;;;;;6208103;23;20163;-81
2022/10/08 04:23:44;;;;;;;26.63;12.47;;;9.00;99.90;;;;;;6211100;23;20170;-82
2022/10/08 04:26:12;;;;;;;22.30;9.63;;;9.00;99.90;;;;;;6209991;23;20681;-82
2022/10/08 04:28:39;;;;;;;16.20;6.97;;;9.20;99.90;;;;;;6210574;23;20154;-80
2022/10/08 04:31:17;;;;;;;22.00;10.23;;;9.00;99.90;;;;;;6209675;23;20727;-83
2022/10/08 04:33:43;;;;;;;26.30;13.17;;;9.20;99.90;;;;;;6209842;23;20177;-83
2022/10/08 04:36:12;;;;;;;23.23;10.23;;;9.40;99.90;;;;;;6209106;23;20618;-81
2022/10/08 04:38:38;;;;;;;22.67;8.43;;;9.40;99.90;;;;;;6209649;23;20158;-81
2022/10/08 04:41:09;;;;;;;20.63;10.17;;;9.50;99.90;;;;;;6209898;23;20618;-81
2022/10/08 04:43:37;;;;;;;25.70;12.63;;;9.40;99.90;;;;;;6209415;23;20181;-82
2022/10/08 04:46:03;;;;;;;19.60;8.53;;;9.60;99.90;;;;;;6211055;23;20238;-82
2022/10/08 04:48:29;;;;;;;19.60;8.87;;;9.50;99.90;;;;;;6211760;23;20177;-81
2022/10/08 04:51:00;;;;;;;13.93;7.40;;;9.50;99.90;;;;;;6211232;23;20733;-81
2022/10/08 04:53:27;;;;;;;12.93;6.20;;;9.40;99.90;;;;;;6209804;23;20582;-81
2022/10/08 04:55:54;;;;;;;10.23;4.33;;;9.40;99.90;;;;;;6210655;23;20150;-81
2022/10/08 04:58:22;;;;;;;11.73;4.27;;;9.60;99.90;;;;;;6209772;23;20712;-81
2022/10/08 05:00:48;;;;;;;9.43;4.37;;;9.80;91.00;;;;;;6209000;23;20517;-80
2022/10/08 05:03:13;;;;;;;11.97;4.07;;;9.60;88.60;;;;;;6210407;23;20178;-80
2022/10/08 05:05:41;;;;;;;6.33;3.43;;;9.70;69.60;;;;;;6210316;23;20178;-81
2022/10/08 05:08:07;;;;;;;8.40;3.00;;;9.80;56.40;;;;;;6209252;23;20165;-81
2022/10/08 05:10:33;;;;;;;7.37;2.37;;;10.10;50.30;;;;;;6209317;23;20654;-81
2022/10/08 05:12:58;;;;;;;8.27;3.10;;;9.70;42.20;;;;;;6209340;23;20278;-83
2022/10/08 05:15:24;;;;;;;9.10;2.90;;;9.80;32.50;;;;;;6209527;23;20199;-80
2022/10/08 05:17:49;;;;;;;9.33;3.37;;;9.90;24.30;;;;;;6209663;23;20157;-81
2022/10/08 05:20:15;;;;;;;7.10;2.70;;;10.00;26.20;;;;;;6211397;23;20165;-81
2022/10/08 05:22:41;;;;;;;8.47;2.40;;;10.00;15.60;;;;;;6209505;23;20240;-82
2022/10/08 05:25:07;;;;;;;7.10;2.20;;;10.20;10.20;;;;;;6209244;23;21237;-81
2022/10/08 05:27:32;;;;;;;7.83;3.00;;;10.10;10.10;;;;;;6209618;23;20166;-82
2022/10/08 05:29:58;;;;;;;7.93;2.23;;;9.90;3.60;;;;;;6209485;23;20193;-81
2022/10/08 05:32:24;;;;;;;9.10;2.30;;;10.20;1.00;;;;;;6210645;23;20170;-81
2022/10/08 05:34:49;;;;;;;7.93;2.40;;;10.40;1.00;;;;;;6210364;23;20146;-81
2022/10/08 05:37:15;;;;;;;6.80;2.47;;;10.20;1.00;;;;;;6209355;23;20493;-82
2022/10/08 05:39:40;;;;;;;8.83;2.40;;;10.50;1.00;;;;;;6209173;23;20162;-81
2022/10/08 05:42:06;;;;;;;7.17;2.10;;;10.80;1.00;;;;;;6210985;23;20536;-81
2022/10/08 05:44:32;;;;;;;4.53;1.80;;;10.70;1.00;;;;;;6208840;23;20158;-82
2022/10/08 05:46:57;;;;;;;8.03;2.37;;;10.50;1.00;;;;;;6208710;23;20220;-81
2022/10/08 05:49:23;;;;;;;8.30;2.40;;;10.70;1.00;;;;;;6208762;23;20249;-81
2022/10/08 05:51:49;;;;;;;7.90;2.40;;;10.70;1.00;;;;;;6208511;23;20220;-82
2022/10/08 05:54:16;;;;;;;9.27;2.60;;;10.70;1.00;;;;;;6208842;23;20155;-82
2022/10/08 05:56:41;;;;;;;10.30;2.60;;;10.90;1.00;;;;;;6210003;23;20230;-82
2022/10/08 05:59:17;;;;;;;6.83;2.10;;;10.90;1.00;;;;;;6209914;23;20182;-81
2022/10/08 06:01:43;;;;;;;6.40;2.33;;;10.80;1.00;;;;;;6209912;23;20142;-81
2022/10/08 06:04:09;;;;;;;10.37;3.20;;;11.00;1.00;;;;;;6208555;23;20642;-82
2022/10/08 06:06:37;;;;;;;6.77;2.27;;;11.00;1.00;;;;;;6209105;23;20161;-81
2022/10/08 06:09:03;;;;;;;9.07;2.67;;;11.00;1.00;;;;;;6208815;23;20158;-82
2022/10/08 06:11:31;;;;;;;10.57;2.90;;;11.10;1.00;;;;;;6208500;23;20162;-81
2022/10/08 06:13:58;;;;;;;6.30;2.80;;;11.30;1.00;;;;;;6210356;23;20189;-83
2022/10/08 06:16:24;;;;;;;6.10;2.30;;;11.20;1.00;;;;;;6183699;23;20238;-81
2022/10/08 06:18:50;;;;;;;8.13;2.73;;;11.40;1.00;;;;;;6183614;23;20157;-82
2022/10/08 06:21:19;;;;;;;7.37;2.50;;;11.40;1.00;;;;;;6183866;23;20568;-82
2022/10/08 06:23:56;;;;;;;5.93;2.47;;;11.50;1.00;;;;;;6183858;23;20185;-82
2022/10/08 06:26:25;;;;;;;5.22;2.20;;;11.50;1.00;;;;;;6210697;23;20173;-83
2022/10/08 06:28:51;;;;;;;9.27;2.05;;;11.60;1.00;;;;;;6183804;23;20200;-82
2022/10/08 06:31:18;;;;;;;8.40;2.57;;;11.50;1.00;;;;;;6183333;23;20221;-84
2022/10/08 06:33:44;;;;;;;7.03;2.60;;;11.60;1.00;;;;;;6182753;23;20188;-84
2022/10/08 06:36:14;;;;;;;4.78;2.03;;;11.80;1.00;;;;;;6182929;23;20151;-82
2022/10/08 06:38:39;;;;;;;7.95;2.30;;;11.90;1.00;;;;;;6183634;23;20204;-83
2022/10/08 06:41:05;;;;;;;9.65;2.40;;;11.80;1.00;;;;;;6209395;23;20159;-82
2022/10/08 06:43:31;;;;;;;6.25;2.33;;;11.80;1.00;;;;;;6182397;23;20175;-82
2022/10/08 06:45:58;;;;;;;7.28;2.17;;;11.90;1.00;;;;;;6182670;23;20158;-81
2022/10/08 06:48:26;;;;;;;6.93;2.10;;;11.80;1.00;;;;;;6183871;23;20170;-82
2022/10/08 06:51:18;;;;;;;7.40;2.15;;;11.90;1.00;;;;;;6209106;23;20284;-81
2022/10/08 06:53:50;;;;;;;6.30;2.35;;;11.80;1.00;;;;;;6200306;23;20178;-81
2022/10/08 06:56:18;;;;;;;8.63;2.40;;;11.70;1.00;;;;;;6182477;23;20213;-82
2022/10/08 06:58:44;;;;;;;8.90;2.50;;;11.70;1.00;;;;;;6209239;23;20146;-82
2022/10/08 07:01:14;;;;;;;8.50;2.97;;;11.60;1.00;;;;;;6182316;23;20253;-80
2022/10/08 07:03:40;;;;;;;5.90;2.63;;;11.70;1.00;;;;;;6182029;23;20189;-81
2022/10/08 07:06:08;;;;;;;6.88;2.70;;;11.60;1.00;;;;;;6182216;23;20158;-80
2022/10/08 07:08:37;;;;;;;8.47;2.93;;;11.60;1.00;;;;;;6182606;23;20168;-82
2022/10/08 07:11:14;;;;;;;8.87;3.13;;;11.60;1.00;;;;;;6182818;23;20185;-81
2022/10/08 07:13:41;;;;;;;8.77;3.47;;;11.60;1.00;;;;;;6209266;23;20213;-80
2022/10/08 07:16:13;;;;;;;9.20;3.90;;;11.60;1.00;;;;;;6182471;23;20665;-82
2022/10/08 07:18:39;;;;;;;9.10;3.23;;;11.60;1.00;;;;;;6209485;23;20166;-80
2022/10/08 07:21:06;;;;;;;6.15;2.80;;;11.70;1.00;;;;;;6182059;23;20644;-81
2022/10/08 07:23:32;;;;;;;9.52;3.45;;;11.50;1.00;;;;;;6181958;23;20189;-82
2022/10/08 07:26:00;;;;;;;16.50;7.37;;;11.50;1.00;;;;;;6181881;23;20165;-81
2022/10/08 07:28:28;;;;;;;18.90;9.27;;;11.40;1.00;;;;;;6208561;23;20174;-81
2022/10/08 07:30:54;;;;;;;17.77;9.07;;;11.30;1.00;;;;;;6182674;23;20858;-82
2022/10/08 07:33:19;;;;;;;15.47;8.60;;;11.40;1.00;;;;;;6209421;23;20194;-81
2022/10/08 07:35:46;;;;;;;19.90;8.43;;;11.40;1.00;;;;;;6183135;23;20162;-81
2022/10/08 07:38:11;;;;;;;23.10;12.23;;;11.40;1.00;;;;;;6183323;23;20265;-82
2022/10/08 07:40:37;;;;;;;13.00;6.23;;;11.30;1.00;;;;;;6209688;23;20614;-81
2022/10/08 07:43:03;;;;;;;10.33;4.10;;;11.30;1.00;;;;;;6183202;23;20273;-81
2022/10/08 07:45:30;;;;;;;11.20;4.40;;;11.60;1.00;;;;;;6209531;23;20541;-81
2022/10/08 07:47:56;;;;;;;13.23;6.17;;;11.40;1.00;;;;;;6182725;23;20245;-82
2022/10/08 07:50:22;;;;;;;9.37;4.23;;;11.30;1.00;;;;;;6208809;23;20212;-81
2022/10/08 07:52:48;;;;;;;14.13;6.80;;;11.40;1.00;;;;;;6208869;23;20182;-81
2022/10/08 07:55:14;;;;;;;10.43;5.20;;;11.20;1.00;;;;;;6182506;23;20631;-82
2022/10/08 07:57:40;;;;;;;9.53;3.83;;;11.20;1.00;;;;;;6183356;23;20591;-82
2022/10/08 08:00:07;;;;;;;9.97;3.70;;;11.20;1.00;;;;;;6185178;23;20161;-81
2022/10/08 08:02:32;;;;;;;6.83;3.43;;;11.20;2.50;;;;;;6211390;23;20170;-81
2022/10/08 08:04:58;;;;;;;8.10;3.13;;;11.20;17.80;;;;;;6184976;23;20166;-81
2022/10/08 08:07:24;;;;;;;5.97;2.97;;;11.10;37.50;;;;;;6211784;23;20663;-82
2022/10/08 08:09:49;;;;;;;6.80;2.80;;;11.20;50.00;;;;;;6185080;23;20524;-81
2022/10/08 08:12:15;;;;;;;7.10;3.42;;;11.30;42.20;;;;;;6183301;23;20312;-82
2022/10/08 08:14:40;;;;;;;6.60;2.97;;;11.30;21.70;;;;;;6184608;23;20871;-81
2022/10/08 08:17:06;;;;;;;7.13;2.93;;;11.40;7.90;;;;;;6209834;23;20158;-82
2022/10/08 08:19:32;;;;;;;6.03;3.42;;;11.50;12.50;;;;;;6210628;23;20705;-81
2022/10/08 08:21:57;;;;;;;6.50;2.92;;;11.50;10.20;;;;;;6184542;23;20161;-82
2022/10/08 08:24:23;;;;;;;6.20;2.58;;;11.50;16.80;;;;;;6184849;23;20193;-81
2022/10/08 08:26:48;;;;;;;5.55;2.60;;;11.50;1.00;;;;;;6211393;23;20154;-81
2022/10/08 08:29:17;;;;;;;7.78;3.08;;;11.70;9.40;;;;;;6184859;23;20155;-82
2022/10/08 08:31:47;;;;;;;5.57;2.40;;;11.50;14.60;;;;;;6184001;23;20158;-81
2022/10/08 08:34:16;;;;;;;6.43;2.80;;;11.60;12.20;;;;;;6210227;23;20173;-81
2022/10/08 08:36:44;;;;;;;4.37;2.93;;;11.90;3.30;;;;;;6183521;23;20154;-82
2022/10/08 08:39:16;;;;;;;5.93;2.60;;;11.80;25.90;;;;;;6185029;23;20158;-81
2022/10/08 08:42:14;;;;;;;6.23;2.30;;;11.60;11.90;;;;;;6183789;23;20151;-82
2022/10/08 08:44:42;;;;;;;5.68;2.70;;;11.70;21.90;;;;;;6182852;23;20587;-81
2022/10/08 08:47:25;;;;;;;8.47;2.80;;;11.70;19.60;;;;;;6183450;23;20151;-81
2022/10/08 08:49:55;;;;;;;6.23;2.60;;;11.70;35.40;;;;;;6209726;23;20198;-82
2022/10/08 08:52:32;;;;;;;9.98;3.05;;;11.70;75.20;;;;;;6182765;23;20257;-82
2022/10/08 08:54:59;;;;;;;7.15;2.97;;;11.80;50.30;;;;;;6182416;23;20154;-82
2022/10/08 08:57:52;;;;;;;6.60;2.78;;;11.80;69.40;;;;;;6209741;23;20159;-82
2022/10/08 09:00:21;;;;;;;4.82;2.40;;;11.80;73.80;;;;;;6183762;23;20288;-82
2022/10/08 09:03:27;;;;;;;5.57;2.80;;;11.90;78.10;;;;;;6184068;23;20182;-81
2022/10/08 09:05:57;;;;;;;6.00;2.53;;;11.90;75.50;;;;;;6035871;23;20165;-82
2022/10/08 09:08:29;;;;;;;4.72;2.30;;;11.90;83.30;;;;;;6163979;23;20211;-82
2022/10/08 09:11:03;;;;;;;6.85;2.40;;;12.10;51.60;;;;;;6179826;23;20186;-81
2022/10/08 09:13:50;;;;;;;6.05;2.55;;;12.20;41.00;;;;;;6192424;23;20536;-79
2022/10/08 09:16:16;;;;;;;6.20;2.20;;;12.30;20.40;;;;;;6203085;23;20158;-80
2022/10/08 09:18:48;;;;;;;3.67;2.30;;;12.30;1.00;;;;;;6205887;23;20167;-80
2022/10/08 09:21:14;;;;;;;5.43;2.55;;;12.40;1.00;;;;;;6205776;23;20209;-80
2022/10/08 09:23:41;;;;;;;5.15;2.50;;;12.40;1.00;;;;;;6206610;23;20451;-83
2022/10/08 09:26:06;;;;;;;5.13;2.20;;;12.30;1.00;;;;;;6208584;23;20559;-83
2022/10/08 09:28:52;;;;;;;3.80;2.30;;;12.30;1.00;;;;;;6207374;23;20164;-83
2022/10/08 09:31:24;;;;;;;4.78;2.35;;;12.30;1.00;;;;;;6205325;23;20178;-82
2022/10/08 09:34:04;;;;;;;9.45;2.25;;;12.40;1.00;;;;;;6203373;23;20205;-81
2022/10/08 09:36:48;;;;;;;5.05;2.38;;;12.40;1.00;;;;;;6208979;23;20139;-82
2022/10/08 09:39:23;;;;;;;5.20;2.30;;;12.50;1.00;;;;;;6207897;23;20145;-79
2022/10/08 09:42:18;;;;;;;5.97;2.90;;;12.60;1.00;;;;;;6207278;23;20632;-79
2022/10/08 09:44:43;;;;;;;6.88;2.70;;;12.60;1.00;;;;;;6180158;23;20155;-79
2022/10/08 09:47:14;;;;;;;7.47;2.90;;;12.70;1.00;;;;;;6205587;23;20157;-78
2022/10/08 09:49:40;;;;;;;6.18;2.90;;;12.70;1.00;;;;;;6205544;23;20515;-81
2022/10/08 09:52:26;;;;;;;7.07;2.97;;;12.50;1.00;;;;;;6204849;23;20185;-78
2022/10/08 09:54:57;;;;;;;4.03;2.70;;;12.60;1.00;;;;;;6202747;23;20716;-78
2022/10/08 09:57:23;;;;;;;3.63;2.45;;;12.60;1.00;;;;;;6205468;23;20631;-79
2022/10/08 09:59:55;;;;;;;7.03;3.28;;;12.70;1.00;;;;;;6205961;23;20252;-78
2022/10/08 10:02:36;;;;;;;3.20;2.72;;;12.70;1.00;;;;;;6205291;23;20577;-79
2022/10/08 10:05:05;;;;;;;5.57;3.08;;;12.70;1.00;;;;;;6204902;23;20174;-79
2022/10/08 10:07:42;;;;;;;4.50;2.72;;;12.90;1.00;;;;;;6206507;23;20159;-79
2022/10/08 10:10:32;;;;;;;7.03;3.40;;;13.30;1.00;;;;;;6208142;23;20182;-77
2022/10/08 10:13:10;;;;;;;8.65;4.70;;;13.60;1.00;;;;;;6184584;23;20198;-80
2022/10/08 10:15:42;;;;;;;7.65;4.63;;;13.70;1.00;;;;;;6206349;23;20591;-78
2022/10/08 10:18:13;;;;;;;5.30;3.30;;;13.60;1.00;;;;;;6205221;23;20135;-79
2022/10/08 10:20:43;;;;;;;6.75;3.78;;;13.70;1.00;;;;;;6204463;23;20185;-79
2022/10/08 10:23:12;;;;;;;7.85;4.30;;;13.90;1.00;;;;;;6206322;23;20185;-79
2022/10/08 10:25:42;;;;;;;6.60;3.97;;;13.90;1.00;;;;;;6205948;23;20143;-80
2022/10/08 10:28:31;;;;;;;6.25;3.65;;;14.10;1.00;;;;;;6211332;23;20143;-79
2022/10/08 10:31:04;;;;;;;5.50;3.63;;;14.30;1.00;;;;;;6208041;23;20189;-81
2022/10/08 10:33:35;;;;;;;8.48;4.10;;;14.60;1.00;;;;;;6207204;23;20178;-81
2022/10/08 10:36:06;;;;;;;7.43;4.65;;;14.70;1.00;;;;;;6205361;23;20170;-81
2022/10/08 10:38:36;;;;;;;6.10;3.58;;;14.40;1.00;;;;;;6207572;23;20494;-81
2022/10/08 10:41:05;;;;;;;9.13;3.92;;;14.40;1.00;;;;;;6205583;23;20574;-82
2022/10/08 10:43:59;;;;;;;4.50;2.78;;;14.40;1.00;;;;;;6205399;23;20313;-82
2022/10/08 10:46:30;;;;;;;6.97;3.22;;;14.40;1.00;;;;;;6202165;23;20514;-81
2022/10/08 10:48:56;;;;;;;5.53;2.83;;;14.40;1.00;;;;;;6208394;23;20244;-82
2022/10/08 10:51:27;;;;;;;6.47;2.90;;;14.30;1.00;;;;;;6208753;23;20611;-82
2022/10/08 10:54:13;;;;;;;6.28;3.90;;;14.00;1.00;;;;;;6209119;23;20209;-81
2022/10/08 10:56:48;;;;;;;5.50;3.60;;;14.00;1.00;;;;;;6208523;23;20142;-81
2022/10/08 10:59:19;;;;;;;6.30;3.33;;;14.00;1.00;;;;;;6206754;23;20177;-82
2022/10/08 11:02:14;;;;;;;6.72;2.90;;;14.20;1.00;;;;;;6206856;23;20154;-81
2022/10/08 11:05:01;;;;;;;5.10;3.20;;;14.30;1.00;;;;;;6207243;23;20510;-81
2022/10/08 11:07:51;;;;;;;6.85;2.90;;;14.40;1.00;;;;;;6207621;23;20228;-81
2022/10/08 11:10:40;;;;;;;6.43;3.13;;;14.60;1.00;;;;;;6208966;23;20174;-81
2022/10/08 11:13:11;;;;;;;5.18;2.92;;;14.70;1.00;;;;;;6206521;23;20193;-82
2022/10/08 11:16:08;;;;;;;7.10;2.80;;;14.70;1.00;;;;;;6208418;23;20611;-83
2022/10/08 11:18:48;;;;;;;5.13;2.20;;;14.80;1.00;;;;;;6207866;23;20484;-81
2022/10/08 11:21:41;;;;;;;3.92;2.45;;;14.80;1.00;;;;;;6205918;23;20493;-81
2022/10/08 11:24:22;;;;;;;5.22;2.25;;;14.80;1.00;;;;;;6205346;23;20189;-80
2022/10/08 11:27:03;;;;;;;6.28;2.38;;;14.90;1.00;;;;;;6208454;23;20662;-82
2022/10/08 11:29:34;;;;;;;3.70;2.25;;;15.00;1.00;;;;;;6208629;23;20174;-81
2022/10/08 11:32:00;;;;;;;7.65;2.90;;;15.10;1.00;;;;;;6206769;23;20155;-81
2022/10/08 11:34:31;;;;;;;5.72;2.63;;;15.30;1.00;;;;;;6208189;23;20591;-81
2022/10/08 11:36:59;;;;;;;4.65;2.42;;;15.30;1.00;;;;;;6206743;23;20153;-81
2022/10/08 11:39:35;;;;;;;6.93;2.90;;;15.10;1.00;;;;;;6206720;23;20173;-82
2022/10/08 11:42:17;;;;;;;6.65;4.28;;;15.20;1.00;;;;;;6207694;23;20583;-82
2022/10/08 11:44:43;;;;;;;13.98;7.97;;;15.20;1.00;;;;;;6207239;23;20150;-81
2022/10/08 11:47:40;;;;;;;13.38;7.47;;;15.20;1.00;;;;;;6205595;23;20223;-81
2022/10/08 11:50:30;;;;;;;8.93;5.00;;;15.10;1.00;;;;;;6205572;23;20186;-81
2022/10/08 11:53:09;;;;;;;7.32;4.35;;;14.90;1.00;;;;;;6206021;23;20668;-81
2022/10/08 11:55:36;;;;;;;5.70;4.20;;;15.00;1.00;;;;;;6206817;23;20192;-81
2022/10/08 11:58:05;;;;;;;5.18;2.90;;;15.10;1.00;;;;;;6204703;23;20165;-81
2022/10/08 12:00:40;;;;;;;5.10;2.53;;;14.90;1.00;;;;;;6206542;23;20158;-79
2022/10/08 12:03:30;;;;;;;6.20;2.97;;;14.90;1.00;;;;;;6205257;23;20184;-78
2022/10/08 12:06:00;;;;;;;6.63;3.00;;;15.00;1.00;;;;;;6207991;23;20150;-79
2022/10/08 12:08:48;;;;;;;6.10;2.70;;;14.90;1.00;;;;;;6205067;23;20357;-79
2022/10/08 12:11:36;;;;;;;3.90;2.08;;;14.90;1.00;;;;;;6203486;23;20193;-79
2022/10/08 12:14:11;;;;;;;5.20;2.55;;;15.00;1.00;;;;;;6204411;23;20217;-79
2022/10/08 12:16:55;;;;;;;5.28;2.22;;;15.10;1.00;;;;;;6204714;23;20781;-79
2022/10/08 12:19:36;;;;;;;6.75;2.53;;;15.30;1.00;;;;;;6204335;23;20205;-83
2022/10/08 12:22:13;;;;;;;4.43;2.78;;;15.30;1.00;;;;;;6208005;23;20150;-83
2022/10/08 12:24:39;;;;;;;5.00;2.28;;;15.20;1.00;;;;;;6207297;23;20155;-84
2022/10/08 12:27:17;;;;;;;4.35;2.30;;;15.40;1.00;;;;;;6208381;23;20212;-85
2022/10/08 12:29:56;;;;;;;5.35;2.50;;;15.60;1.00;;;;;;6207897;23;20277;-85
2022/10/08 12:32:49;;;;;;;4.97;2.45;;;15.70;1.00;;;;;;6208368;23;20212;-84
2022/10/08 12:35:28;;;;;;;6.75;2.53;;;15.70;1.00;;;;;;6203538;23;20159;-83
2022/10/08 12:37:54;;;;;;;3.33;1.95;;;15.60;1.00;;;;;;6210734;23;20204;-82
2022/10/08 12:40:39;;;;;;;7.55;2.47;;;15.50;1.00;;;;;;6208413;23;20159;-83
2022/10/08 12:43:36;;;;;;;7.05;2.63;;;15.40;1.00;;;;;;6208226;23;20569;-84
2022/10/08 12:46:24;;;;;;;5.47;2.50;;;15.30;1.00;;;;;;6195106;23;20602;-83
2022/10/08 12:48:50;;;;;;;3.97;2.00;;;15.40;1.00;;;;;;6211451;23;20189;-83
2022/10/08 12:51:55;;;;;;;5.78;2.30;;;15.50;1.00;;;;;;6210510;23;20630;-81
2022/10/08 12:54:24;;;;;;;7.93;2.53;;;15.70;1.00;;;;;;6188772;23;20233;-82
2022/10/08 12:56:51;;;;;;;4.55;2.50;;;15.70;1.00;;;;;;6209688;23;20162;-83
2022/10/08 12:59:21;;;;;;;4.88;2.10;;;15.80;1.00;;;;;;6208558;23;20155;-83
2022/10/08 13:01:48;;;;;;;6.40;2.65;;;15.70;1.00;;;;;;6207672;23;20162;-82
2022/10/08 13:04:18;;;;;;;3.97;1.73;;;15.70;1.00;;;;;;6207259;23;20232;-82
2022/10/08 13:06:45;;;;;;;2.60;1.40;;;15.30;1.00;;;;;;6206457;23;20150;-82
2022/10/08 13:09:24;;;;;;;3.40;1.30;;;15.00;1.00;;;;;;6209072;23;20664;-81
2022/10/08 13:11:50;;;;;;;2.85;1.45;;;14.50;1.00;;;;;;6209337;23;20150;-82
2022/10/08 13:14:26;;;;;;;3.22;1.15;;;14.20;1.00;;;;;;6209706;23;20172;-82
2022/10/08 13:16:52;;;;;;;5.03;1.20;;;13.70;1.00;;;;;;6181821;23;20150;-80
2022/10/08 13:20:18;;;;;;;3.47;1.30;;;13.50;1.00;;;;;;6178186;23;20158;-82
2022/10/08 13:22:47;;;;;;;3.50;1.45;;;13.30;1.00;;;;;;6138647;23;20249;-82